createdAt,value
2017-04-19T00:00:47.504Z,0.40
2017-04-19T00:01:46.431Z,0.40
2017-04-19T00:02:44.615Z,0.40
2017-04-19T00:04:41.715Z,0.40
2017-04-19T00:05:39.903Z,0.40
2017-04-19T00:06:38.115Z,0.40
2017-04-19T00:07:36.300Z,0.30
2017-04-19T00:08:34.593Z,0.30
2017-04-19T00:09:32.861Z,0.20
2017-04-19T00:10:31.074Z,0.20
2017-04-19T00:11:29.260Z,0.20
2017-04-19T00:12:27.479Z,0.20
2017-04-19T00:13:25.676Z,0.20
2017-04-19T00:14:23.891Z,0.20
2017-04-19T00:15:22.340Z,0.20
2017-04-19T00:16:20.532Z,0.20
2017-04-19T00:17:18.720Z,0.20
2017-04-19T00:18:17.202Z,0.20
2017-04-19T00:19:15.392Z,0.10
2017-04-19T00:20:13.575Z,0.10
2017-04-19T00:21:11.764Z,0.10
2017-04-19T00:22:09.956Z,0.10
2017-04-19T00:23:08.139Z,0.00
2017-04-19T00:24:07.101Z,0.00
2017-04-19T00:25:05.551Z,0.00
2017-04-19T00:26:03.739Z,0.00
2017-04-19T00:27:02.196Z,0.00
2017-04-19T00:28:00.390Z,-0.10
2017-04-19T00:28:58.573Z,0.00
2017-04-19T00:29:56.796Z,0.00
2017-04-19T00:30:54.982Z,0.00
2017-04-19T00:31:53.431Z,0.00
2017-04-19T00:32:51.685Z,-0.10
2017-04-19T00:33:49.883Z,-0.10
2017-04-19T00:34:48.064Z,-0.10
2017-04-19T00:35:46.556Z,-0.20
2017-04-19T00:36:44.751Z,-0.20
2017-04-19T00:37:42.955Z,-0.20
2017-04-19T00:38:41.183Z,-0.20
2017-04-19T00:39:39.426Z,-0.20
2017-04-19T00:40:37.892Z,-0.20
2017-04-19T00:41:36.124Z,-0.30
2017-04-19T00:42:35.175Z,-0.30
2017-04-19T00:43:33.379Z,-0.30
2017-04-19T00:44:32.399Z,-0.40
2017-04-19T00:45:30.617Z,-0.30
2017-04-19T00:46:28.894Z,-0.40
2017-04-19T00:47:27.872Z,-0.40
2017-04-19T00:48:26.835Z,-0.30
2017-04-19T00:49:25.056Z,-0.40
2017-04-19T00:50:23.272Z,-0.40
2017-04-19T00:51:21.714Z,-0.40
2017-04-19T00:52:19.944Z,-0.40
2017-04-19T00:53:18.185Z,-0.40
2017-04-19T00:54:16.396Z,-0.50
2017-04-19T00:55:14.660Z,-0.50
2017-04-19T00:56:12.858Z,-0.50
2017-04-19T00:57:11.335Z,-0.50
2017-04-19T00:58:09.543Z,-0.50
2017-04-19T00:59:07.781Z,-0.40
2017-04-19T01:00:06.741Z,-0.50
2017-04-19T01:01:05.229Z,-0.50
2017-04-19T01:02:03.458Z,-0.50
2017-04-19T01:03:02.412Z,-0.50
2017-04-19T01:04:00.610Z,-0.50
2017-04-19T01:04:58.892Z,-0.50
2017-04-19T01:05:57.098Z,-0.50
2017-04-19T01:06:55.303Z,-0.50
2017-04-19T01:07:53.507Z,-0.60
2017-04-19T01:08:51.721Z,-0.60
2017-04-19T01:09:49.916Z,-0.60
2017-04-19T01:10:48.160Z,-0.60
2017-04-19T01:11:46.376Z,-0.60
2017-04-19T01:12:45.314Z,-0.70
2017-04-19T01:13:43.528Z,-0.70
2017-04-19T01:14:42.551Z,-0.70
2017-04-19T01:15:40.750Z,-0.80
2017-04-19T01:16:39.982Z,-0.80
2017-04-19T01:17:38.186Z,-0.80
2017-04-19T01:18:36.383Z,-0.80
2017-04-19T01:19:34.594Z,-0.80
2017-04-19T01:20:32.814Z,-0.80
2017-04-19T01:21:31.255Z,-0.80
2017-04-19T01:22:29.497Z,-0.90
2017-04-19T01:23:27.714Z,-0.90
2017-04-19T01:24:26.163Z,-0.90
2017-04-19T01:25:24.731Z,-0.90
2017-04-19T01:26:22.935Z,-1.00
2017-04-19T01:27:21.893Z,-1.00
2017-04-19T01:28:20.226Z,-1.00
2017-04-19T01:29:18.439Z,-1.00
2017-04-19T01:30:16.652Z,-1.10
2017-04-19T01:31:14.896Z,-1.00
2017-04-19T01:32:13.188Z,-1.00
2017-04-19T01:33:11.492Z,-1.00
2017-04-19T01:34:09.741Z,-1.10
2017-04-19T01:35:07.957Z,-1.10
2017-04-19T01:36:06.911Z,-1.10
2017-04-19T01:37:05.135Z,-1.10
2017-04-19T01:38:03.677Z,-1.20
2017-04-19T01:39:02.150Z,-1.20
2017-04-19T01:40:00.375Z,-1.20
2017-04-19T01:40:58.570Z,-1.20
2017-04-19T01:41:57.495Z,-1.20
2017-04-19T01:42:55.684Z,-1.20
2017-04-19T01:43:54.632Z,-1.20
2017-04-19T01:44:52.820Z,-1.20
2017-04-19T01:45:51.054Z,-1.30
2017-04-19T01:46:49.263Z,-1.30
2017-04-19T01:47:47.979Z,-1.30
2017-04-19T01:48:46.507Z,-1.40
2017-04-19T01:49:44.812Z,-1.30
2017-04-19T01:50:42.995Z,-1.30
2017-04-19T01:51:41.230Z,-1.40
2017-04-19T01:52:39.416Z,-1.40
2017-04-19T01:53:38.124Z,-1.40
2017-04-19T01:54:36.528Z,-1.40
2017-04-19T01:55:34.727Z,-1.40
2017-04-19T01:56:32.923Z,-1.40
2017-04-19T01:57:31.126Z,-1.50
2017-04-19T01:58:29.321Z,-1.50
2017-04-19T01:59:28.243Z,-1.50
2017-04-19T02:00:27.039Z,-1.50
2017-04-19T02:01:25.255Z,-1.50
2017-04-19T02:02:23.441Z,-1.50
2017-04-19T02:03:21.709Z,-1.50
2017-04-19T02:04:19.900Z,-1.50
2017-04-19T02:05:19.685Z,-1.50
2017-04-19T02:06:23.480Z,-1.60
2017-04-19T02:07:27.543Z,-0.60
2017-04-19T02:08:25.759Z,-1.60
2017-04-19T02:09:23.955Z,-1.60
2017-04-19T02:10:22.133Z,-1.60
2017-04-19T02:11:21.098Z,-1.60
2017-04-19T02:12:19.415Z,-1.50
2017-04-19T02:13:17.685Z,-1.60
2017-04-19T02:14:15.929Z,-1.50
2017-04-19T02:15:14.143Z,-1.50
2017-04-19T02:16:12.328Z,-1.50
2017-04-19T02:17:10.523Z,-1.50
2017-04-19T02:18:08.731Z,-1.60
2017-04-19T02:19:07.191Z,-1.60
2017-04-19T02:20:05.422Z,-1.60
2017-04-19T02:21:03.609Z,-1.60
2017-04-19T02:22:01.878Z,-1.60
2017-04-19T02:23:00.072Z,-1.60
2017-04-19T02:23:58.259Z,-1.60
2017-04-19T02:24:57.011Z,-1.60
2017-04-19T02:25:55.230Z,-1.60
2017-04-19T02:26:53.439Z,-1.60
2017-04-19T02:27:51.712Z,-1.60
2017-04-19T02:28:49.954Z,-1.60
2017-04-19T02:29:48.143Z,-1.60
2017-04-19T02:30:46.380Z,-1.60
2017-04-19T02:31:44.591Z,-1.60
2017-04-19T02:32:42.783Z,-1.70
2017-04-19T02:33:40.983Z,-1.70
2017-04-19T02:34:39.272Z,-1.70
2017-04-19T02:35:37.481Z,-1.70
2017-04-19T02:36:36.409Z,-1.80
2017-04-19T02:37:34.619Z,-1.80
2017-04-19T02:38:32.850Z,-1.80
2017-04-19T02:39:31.063Z,-1.70
2017-04-19T02:40:29.579Z,-1.70
2017-04-19T02:41:27.779Z,-1.70
2017-04-19T02:42:26.015Z,-1.70
2017-04-19T02:43:24.997Z,-1.70
2017-04-19T02:44:24.179Z,-1.70
2017-04-19T02:45:22.442Z,-1.70
2017-04-19T02:46:20.691Z,-1.70
2017-04-19T02:47:18.898Z,-1.60
2017-04-19T02:48:17.452Z,-1.60
2017-04-19T02:49:15.704Z,-1.60
2017-04-19T02:50:13.952Z,-1.60
2017-04-19T02:51:12.154Z,-1.60
2017-04-19T02:52:11.105Z,-1.70
2017-04-19T02:53:09.328Z,-1.70
2017-04-19T02:54:07.530Z,-1.70
2017-04-19T02:55:06.063Z,-1.70
2017-04-19T02:56:04.272Z,-1.80
2017-04-19T02:57:02.470Z,-1.70
2017-04-19T02:58:00.675Z,-1.70
2017-04-19T02:58:58.973Z,-1.70
2017-04-19T02:59:57.307Z,-1.70
2017-04-19T03:00:55.543Z,-1.70
2017-04-19T03:01:53.760Z,-1.80
2017-04-19T03:02:51.972Z,-1.80
2017-04-19T03:03:50.171Z,-1.80
2017-04-19T03:04:49.128Z,-1.80
2017-04-19T03:05:47.578Z,-1.80
2017-04-19T03:06:45.873Z,-1.80
2017-04-19T03:07:44.147Z,-1.90
2017-04-19T03:08:43.395Z,-1.90
2017-04-19T03:09:41.604Z,-1.80
2017-04-19T03:10:39.824Z,-1.90
2017-04-19T03:11:38.032Z,-1.90
2017-04-19T03:12:36.267Z,-1.90
2017-04-19T03:13:34.529Z,-1.90
2017-04-19T03:14:32.740Z,-2.00
2017-04-19T03:15:31.688Z,-2.00
2017-04-19T03:16:29.903Z,-2.00
2017-04-19T03:17:28.186Z,-2.00
2017-04-19T03:18:26.427Z,-2.00
2017-04-19T03:19:24.631Z,-2.00
2017-04-19T03:20:23.827Z,-1.90
2017-04-19T03:21:22.408Z,-2.00
2017-04-19T03:22:20.616Z,-1.90
2017-04-19T03:23:18.823Z,-1.90
2017-04-19T03:24:17.056Z,-1.90
2017-04-19T03:25:15.262Z,-1.90
2017-04-19T03:26:13.471Z,-1.90
2017-04-19T03:27:12.719Z,-1.90
2017-04-19T03:28:11.174Z,-1.90
2017-04-19T03:29:09.375Z,-1.90
2017-04-19T03:30:07.610Z,-2.00
2017-04-19T03:31:05.848Z,-2.00
2017-04-19T03:32:04.319Z,-1.90
2017-04-19T03:33:02.547Z,-2.00
2017-04-19T03:34:00.751Z,-2.00
2017-04-19T03:34:59.103Z,-1.90
2017-04-19T03:35:57.659Z,-2.00
2017-04-19T03:36:55.880Z,-2.00
2017-04-19T03:37:54.112Z,-1.90
2017-04-19T03:38:52.316Z,-1.80
2017-04-19T03:39:50.503Z,-1.90
2017-04-19T03:40:48.698Z,-1.90
2017-04-19T03:41:46.951Z,-2.00
2017-04-19T03:42:45.901Z,-2.00
2017-04-19T03:43:44.085Z,-2.00
2017-04-19T03:44:42.280Z,-2.00
2017-04-19T03:45:40.467Z,-1.90
2017-04-19T03:46:38.654Z,-2.00
2017-04-19T03:47:36.879Z,-1.90
2017-04-19T03:48:35.074Z,-2.00
2017-04-19T03:49:33.592Z,-2.00
2017-04-19T03:50:31.789Z,-2.00
2017-04-19T03:51:30.304Z,-2.00
2017-04-19T03:52:28.490Z,-2.00
2017-04-19T03:53:26.703Z,-2.00
2017-04-19T03:54:24.939Z,-1.90
2017-04-19T03:55:23.131Z,-1.90
2017-04-19T03:56:21.359Z,-2.00
2017-04-19T03:57:19.804Z,-2.00
2017-04-19T03:58:18.727Z,-2.00
2017-04-19T03:59:16.956Z,-2.00
2017-04-19T04:00:15.155Z,-2.00
2017-04-19T04:01:13.364Z,-2.00
2017-04-19T04:02:11.568Z,-2.00
2017-04-19T04:03:09.757Z,-2.00
2017-04-19T04:04:07.960Z,-2.00
2017-04-19T04:05:06.922Z,-2.00
2017-04-19T04:06:05.111Z,-2.00
2017-04-19T04:07:03.320Z,-2.00
2017-04-19T04:08:02.247Z,-1.90
2017-04-19T04:09:00.443Z,-1.90
2017-04-19T04:09:58.644Z,-1.90
2017-04-19T04:10:56.867Z,-1.90
2017-04-19T04:11:55.063Z,-1.90
2017-04-19T04:12:54.026Z,-2.00
2017-04-19T04:13:52.252Z,-2.00
2017-04-19T04:14:50.472Z,-2.00
2017-04-19T04:15:49.428Z,-1.90
2017-04-19T04:16:49.431Z,-1.90
2017-04-19T04:17:47.618Z,-2.00
2017-04-19T04:18:45.816Z,-2.00
2017-04-19T04:19:44.042Z,-2.00
2017-04-19T04:20:42.230Z,-2.00
2017-04-19T04:21:40.418Z,-2.00
2017-04-19T04:22:38.647Z,-2.00
2017-04-19T04:23:36.840Z,-1.90
2017-04-19T04:24:35.044Z,-1.90
2017-04-19T04:25:33.258Z,-1.90
2017-04-19T04:26:31.463Z,-1.80
2017-04-19T04:27:29.664Z,-1.80
2017-04-19T04:28:28.148Z,-1.80
2017-04-19T04:29:27.080Z,-1.80
2017-04-19T04:30:25.396Z,-1.80
2017-04-19T04:31:24.323Z,-1.90
2017-04-19T04:32:22.529Z,-1.90
2017-04-19T04:33:20.710Z,-1.90
2017-04-19T04:34:19.967Z,-1.90
2017-04-19T04:35:18.161Z,-1.90
2017-04-19T04:36:16.422Z,-1.90
2017-04-19T04:37:14.866Z,-1.80
2017-04-19T04:38:13.052Z,-1.80
2017-04-19T04:39:11.294Z,-1.80
2017-04-19T04:40:10.227Z,-1.80
2017-04-19T04:41:08.440Z,-1.80
2017-04-19T04:42:06.790Z,-1.80
2017-04-19T04:43:05.055Z,-1.80
2017-04-19T04:44:03.260Z,-1.80
2017-04-19T04:45:01.471Z,-1.70
2017-04-19T04:45:59.708Z,-1.70
2017-04-19T04:46:58.146Z,-1.70
2017-04-19T04:47:56.370Z,-1.70
2017-04-19T04:48:54.883Z,-1.70
2017-04-19T04:49:53.362Z,-1.60
2017-04-19T04:50:52.302Z,-1.60
2017-04-19T04:51:50.853Z,-1.50
2017-04-19T04:52:49.064Z,-1.40
2017-04-19T04:53:47.587Z,-1.20
2017-04-19T04:54:45.809Z,-1.00
2017-04-19T04:55:44.028Z,-0.80
2017-04-19T04:56:42.971Z,-0.50
2017-04-19T04:57:41.211Z,-0.20
2017-04-19T04:58:39.819Z,0.10
2017-04-19T04:59:38.027Z,0.30
2017-04-19T05:00:36.231Z,0.70
2017-04-19T05:01:34.462Z,0.90
2017-04-19T05:02:32.655Z,1.20
2017-04-19T05:03:30.883Z,1.30
2017-04-19T05:04:29.098Z,1.50
2017-04-19T05:05:27.292Z,1.70
2017-04-19T05:06:26.332Z,1.90
2017-04-19T05:07:24.799Z,2.20
2017-04-19T05:08:23.008Z,2.40
2017-04-19T05:09:21.236Z,2.40
2017-04-19T05:10:19.436Z,2.60
2017-04-19T05:11:17.630Z,2.60
2017-04-19T05:12:15.836Z,3.00
2017-04-19T05:13:14.041Z,3.10
2017-04-19T05:14:12.979Z,3.30
2017-04-19T05:15:11.211Z,3.30
2017-04-19T05:16:09.410Z,3.50
2017-04-19T05:17:07.632Z,3.80
2017-04-19T05:18:06.128Z,4.00
2017-04-19T05:19:04.891Z,4.20
2017-04-19T05:20:03.096Z,4.30
2017-04-19T05:21:01.318Z,4.50
2017-04-19T05:21:59.525Z,4.80
2017-04-19T05:22:57.724Z,5.00
2017-04-19T05:23:55.951Z,5.00
2017-04-19T05:24:54.160Z,5.20
2017-04-19T05:25:52.365Z,5.50
2017-04-19T05:26:50.602Z,5.60
2017-04-19T05:27:48.795Z,5.80
2017-04-19T05:28:47.037Z,5.80
2017-04-19T05:29:45.563Z,5.80
2017-04-19T05:30:44.026Z,5.90
2017-04-19T05:31:42.233Z,6.00
2017-04-19T05:32:41.204Z,6.10
2017-04-19T05:33:39.406Z,6.30
2017-04-19T05:34:37.606Z,6.40
2017-04-19T05:35:35.855Z,6.60
2017-04-19T05:36:34.064Z,6.80
2017-04-19T05:37:32.264Z,7.00
2017-04-19T05:38:30.495Z,7.10
2017-04-19T05:39:29.451Z,7.20
2017-04-19T05:40:27.644Z,7.30
2017-04-19T05:41:26.034Z,7.40
2017-04-19T05:42:24.273Z,7.70
2017-04-19T05:43:22.532Z,7.70
2017-04-19T05:44:20.760Z,7.50
2017-04-19T05:45:20.378Z,7.40
2017-04-19T05:46:18.562Z,7.40
2017-04-19T05:47:16.768Z,7.50
2017-04-19T05:48:14.999Z,7.60
2017-04-19T05:49:13.214Z,7.70
2017-04-19T05:50:11.646Z,7.90
2017-04-19T05:51:10.079Z,7.30
2017-04-19T05:52:08.338Z,7.40
2017-04-19T05:53:06.690Z,7.50
2017-04-19T05:54:04.899Z,7.60
2017-04-19T05:55:04.014Z,7.60
2017-04-19T05:56:02.974Z,8.00
2017-04-19T05:57:01.420Z,8.10
2017-04-19T05:57:59.606Z,8.10
2017-04-19T05:58:58.055Z,8.40
2017-04-19T05:59:56.311Z,8.20
2017-04-19T06:00:54.774Z,8.10
2017-04-19T06:01:53.011Z,8.20
2017-04-19T06:02:51.204Z,8.60
2017-04-19T06:03:49.393Z,8.90
2017-04-19T06:04:47.601Z,9.20
2017-04-19T06:05:45.791Z,9.10
2017-04-19T06:06:44.063Z,8.70
2017-04-19T06:07:42.388Z,8.60
2017-04-19T06:08:40.608Z,8.60
2017-04-19T06:09:39.092Z,8.60
2017-04-19T06:10:37.314Z,8.60
2017-04-19T06:11:35.543Z,8.80
2017-04-19T06:12:33.984Z,8.80
2017-04-19T06:13:32.227Z,8.90
2017-04-19T06:14:30.771Z,8.70
2017-04-19T06:15:29.695Z,8.80
2017-04-19T06:16:27.888Z,8.90
2017-04-19T06:17:26.111Z,9.00
2017-04-19T06:18:24.537Z,9.20
2017-04-19T06:19:22.781Z,9.20
2017-04-19T06:20:20.955Z,9.40
2017-04-19T06:21:19.187Z,9.40
2017-04-19T06:22:17.373Z,9.60
2017-04-19T06:23:15.575Z,9.70
2017-04-19T06:24:13.773Z,9.70
2017-04-19T06:25:12.320Z,9.60
2017-04-19T06:26:10.512Z,9.40
2017-04-19T06:27:08.704Z,9.50
2017-04-19T06:28:06.911Z,9.50
2017-04-19T06:29:05.108Z,9.60
2017-04-19T06:30:03.291Z,9.50
2017-04-19T06:31:02.735Z,9.50
2017-04-19T06:32:01.656Z,9.40
2017-04-19T06:32:59.839Z,9.40
2017-04-19T06:33:58.029Z,9.30
2017-04-19T06:34:56.217Z,9.70
2017-04-19T06:35:54.403Z,9.80
2017-04-19T06:36:52.634Z,10.00
2017-04-19T06:37:51.563Z,10.00
2017-04-19T06:38:49.751Z,10.50
2017-04-19T06:39:47.992Z,10.80
2017-04-19T06:40:46.194Z,10.90
2017-04-19T06:41:44.403Z,10.80
2017-04-19T06:42:42.989Z,10.70
2017-04-19T06:43:41.175Z,10.80
2017-04-19T06:44:39.371Z,10.80
2017-04-19T06:45:37.555Z,11.20
2017-04-19T06:46:35.745Z,11.20
2017-04-19T06:47:33.950Z,11.50
2017-04-19T06:48:32.193Z,11.10
2017-04-19T06:49:30.375Z,11.00
2017-04-19T06:50:28.571Z,11.20
2017-04-19T06:51:26.823Z,11.40
2017-04-19T06:52:25.012Z,11.40
2017-04-19T06:53:23.205Z,11.60
2017-04-19T06:54:21.446Z,11.30
2017-04-19T06:55:19.634Z,11.40
2017-04-19T06:56:17.829Z,11.40
2017-04-19T06:57:16.025Z,11.50
2017-04-19T06:58:15.196Z,11.40
2017-04-19T06:59:13.393Z,11.30
2017-04-19T07:00:11.912Z,11.30
2017-04-19T07:01:10.384Z,11.50
2017-04-19T07:02:08.575Z,11.40
2017-04-19T07:03:08.747Z,11.50
2017-04-19T07:04:07.420Z,11.60
2017-04-19T07:05:06.319Z,11.50
2017-04-19T07:06:04.907Z,11.50
2017-04-19T07:07:03.164Z,11.60
2017-04-19T07:08:01.397Z,11.80
2017-04-19T07:08:59.604Z,12.40
2017-04-19T07:09:57.801Z,12.10
2017-04-19T07:10:56.738Z,12.00
2017-04-19T07:11:54.963Z,11.80
2017-04-19T07:12:53.160Z,11.70
2017-04-19T07:13:51.365Z,12.00
2017-04-19T07:14:50.292Z,12.00
2017-04-19T07:15:48.480Z,11.90
2017-04-19T07:16:46.675Z,12.20
2017-04-19T07:17:45.639Z,11.90
2017-04-19T07:18:44.094Z,12.00
2017-04-19T07:19:42.303Z,11.50
2017-04-19T07:20:41.266Z,11.00
2017-04-19T07:21:39.464Z,10.40
2017-04-19T07:22:37.703Z,10.70
2017-04-19T07:23:36.154Z,10.80
2017-04-19T07:24:34.623Z,11.20
2017-04-19T07:25:32.819Z,11.70
2017-04-19T07:26:31.739Z,12.10
2017-04-19T07:27:29.936Z,11.80
2017-04-19T07:28:28.130Z,11.80
2017-04-19T07:29:27.083Z,12.20
2017-04-19T07:30:25.275Z,12.20
2017-04-19T07:31:23.607Z,11.60
2017-04-19T07:32:21.827Z,11.20
2017-04-19T07:33:20.027Z,10.40
2017-04-19T07:34:18.242Z,10.60
2017-04-19T07:35:16.488Z,11.20
2017-04-19T07:36:14.685Z,11.80
2017-04-19T07:37:12.871Z,12.30
2017-04-19T07:38:11.064Z,13.00
2017-04-19T07:39:09.291Z,12.90
2017-04-19T07:40:07.503Z,12.50
2017-04-19T07:41:06.530Z,12.80
2017-04-19T07:42:04.743Z,13.10
2017-04-19T07:43:03.208Z,12.80
2017-04-19T07:44:01.435Z,12.70
2017-04-19T07:44:59.644Z,11.80
2017-04-19T07:45:58.118Z,11.60
2017-04-19T07:46:56.327Z,12.20
2017-04-19T07:47:54.536Z,12.70
2017-04-19T07:48:52.747Z,12.90
2017-04-19T07:49:51.722Z,13.30
2017-04-19T07:50:49.928Z,12.90
2017-04-19T07:51:48.176Z,13.00
2017-04-19T07:52:46.448Z,12.70
2017-04-19T07:53:44.660Z,12.60
2017-04-19T07:54:43.142Z,12.80
2017-04-19T07:55:41.374Z,12.30
2017-04-19T07:56:39.812Z,12.20
2017-04-19T07:57:38.367Z,12.60
2017-04-19T07:58:36.548Z,13.00
2017-04-19T07:59:35.058Z,12.70
2017-04-19T08:00:33.247Z,12.40
2017-04-19T08:01:31.472Z,11.50
2017-04-19T08:02:29.662Z,10.80
2017-04-19T08:03:27.864Z,10.30
2017-04-19T08:04:26.049Z,10.70
2017-04-19T08:05:24.231Z,10.40
2017-04-19T08:06:22.428Z,10.00
2017-04-19T08:07:20.916Z,8.90
2017-04-19T08:08:19.378Z,8.70
2017-04-19T08:09:17.573Z,8.70
2017-04-19T08:10:16.504Z,9.70
2017-04-19T08:11:15.387Z,10.70
2017-04-19T08:12:13.584Z,11.00
2017-04-19T08:13:12.196Z,11.00
2017-04-19T08:14:10.396Z,11.00
2017-04-19T08:15:09.118Z,11.00
2017-04-19T08:16:07.591Z,10.80
2017-04-19T08:17:06.784Z,10.60
2017-04-19T08:18:05.719Z,10.40
2017-04-19T08:19:03.931Z,10.10
2017-04-19T08:20:02.143Z,9.30
2017-04-19T08:21:00.391Z,9.00
2017-04-19T08:21:58.583Z,9.00
2017-04-19T08:22:56.772Z,8.90
2017-04-19T08:23:55.524Z,8.70
2017-04-19T08:24:53.780Z,8.30
2017-04-19T08:25:51.966Z,7.80
2017-04-19T08:26:50.180Z,7.70
2017-04-19T08:27:48.377Z,7.30
2017-04-19T08:28:46.559Z,7.20
2017-04-19T08:29:44.748Z,7.30
2017-04-19T08:30:43.721Z,7.50
2017-04-19T08:31:41.916Z,7.70
2017-04-19T08:32:40.139Z,8.20
2017-04-19T08:33:38.368Z,8.60
2017-04-19T08:34:37.075Z,9.10
2017-04-19T08:35:35.372Z,9.50
2017-04-19T08:36:33.599Z,10.30
2017-04-19T08:37:31.796Z,11.70
2017-04-19T08:38:29.994Z,12.70
2017-04-19T08:39:28.259Z,13.40
2017-04-19T08:40:26.465Z,14.10
2017-04-19T08:41:24.680Z,13.40
2017-04-19T08:42:22.905Z,12.90
2017-04-19T08:43:21.100Z,12.80
2017-04-19T08:44:19.299Z,12.80
2017-04-19T08:45:17.500Z,12.90
2017-04-19T08:47:32.099Z,13.40
2017-04-19T08:48:30.771Z,13.50
2017-04-19T08:49:28.996Z,13.20
2017-04-19T08:50:27.200Z,11.40
2017-04-19T08:51:25.641Z,9.90
2017-04-19T08:52:23.946Z,8.90
2017-04-19T08:53:22.217Z,8.70
2017-04-19T08:54:20.415Z,8.70
2017-04-19T08:55:18.622Z,8.90
2017-04-19T08:56:17.577Z,9.20
2017-04-19T08:57:15.783Z,9.60
2017-04-19T08:58:13.980Z,9.70
2017-04-19T08:59:12.209Z,9.40
2017-04-19T09:00:10.412Z,8.50
2017-04-19T09:01:09.620Z,7.90
2017-04-19T09:02:07.838Z,7.80
2017-04-19T09:03:05.264Z,7.80
2017-04-19T09:04:02.688Z,8.00
2017-04-19T09:05:00.139Z,7.90
2017-04-19T09:05:58.336Z,8.00
2017-04-19T09:06:55.786Z,7.90
2017-04-19T09:07:53.988Z,8.10
2017-04-19T09:08:52.174Z,8.30
2017-04-19T09:09:50.408Z,8.20
2017-04-19T09:10:49.599Z,8.10
2017-04-19T09:11:48.532Z,7.70
2017-04-19T09:12:47.013Z,7.40
2017-04-19T09:13:45.225Z,7.10
2017-04-19T09:14:43.435Z,6.70
2017-04-19T09:15:41.619Z,6.90
2017-04-19T09:16:40.131Z,7.60
2017-04-19T09:17:38.540Z,8.40
2017-04-19T09:18:36.775Z,9.40
2017-04-19T09:19:35.663Z,10.20
2017-04-19T09:20:34.100Z,10.90
2017-04-19T09:21:32.310Z,11.20
2017-04-19T09:22:30.534Z,11.20
2017-04-19T09:23:28.762Z,11.10
2017-04-19T09:24:26.715Z,11.10
2017-04-19T09:25:25.671Z,10.40
2017-04-19T09:26:23.882Z,9.40
2017-04-19T09:27:21.308Z,9.30
2017-04-19T09:28:20.277Z,9.60
2017-04-19T09:29:18.583Z,9.80
2017-04-19T09:30:16.019Z,9.80
2017-04-19T09:31:14.223Z,9.50
2017-04-19T09:32:12.444Z,10.10
2017-04-19T09:33:10.673Z,11.30
2017-04-19T09:34:08.928Z,11.90
2017-04-19T09:35:07.356Z,11.70
2017-04-19T09:36:05.570Z,11.70
2017-04-19T09:37:03.012Z,11.70
2017-04-19T09:38:01.252Z,13.40
2017-04-19T09:38:59.512Z,13.60
2017-04-19T09:39:57.807Z,13.70
2017-04-19T09:40:56.081Z,14.50
2017-04-19T09:41:54.331Z,15.10
2017-04-19T09:42:52.554Z,15.90
2017-04-19T09:43:50.806Z,16.70
2017-04-19T09:44:49.048Z,17.20
2017-04-19T09:45:47.314Z,17.40
2017-04-19T09:46:45.552Z,17.80
2017-04-19T09:47:44.196Z,17.80
2017-04-19T09:48:42.547Z,17.80
2017-04-19T09:49:41.451Z,17.80
2017-04-19T09:50:39.696Z,18.40
2017-04-19T09:51:37.960Z,18.50
2017-04-19T09:52:36.183Z,17.30
2017-04-19T09:53:34.418Z,16.20
2017-04-19T09:54:32.655Z,15.00
2017-04-19T09:55:30.102Z,15.00
2017-04-19T09:56:28.332Z,13.00
2017-04-19T09:57:26.623Z,12.80
2017-04-19T09:58:24.852Z,12.90
2017-04-19T09:59:23.089Z,12.90
2017-04-19T10:00:21.324Z,11.90
2017-04-19T10:01:19.847Z,11.60
2017-04-19T10:02:18.079Z,11.70
2017-04-19T10:03:15.593Z,11.70
2017-04-19T10:04:13.823Z,10.60
2017-04-19T10:05:12.046Z,10.20
2017-04-19T10:06:10.500Z,10.90
2017-04-19T10:07:08.771Z,11.40
2017-04-19T10:09:05.885Z,12.10
2017-04-19T10:10:04.107Z,11.40
2017-04-19T10:11:01.571Z,11.40
2017-04-19T10:11:59.794Z,11.70
2017-04-19T10:12:57.506Z,11.70
2017-04-19T10:13:55.720Z,12.20
2017-04-19T10:14:53.993Z,12.00
2017-04-19T10:15:51.686Z,12.00
2017-04-19T10:16:49.952Z,11.80
2017-04-19T10:17:48.259Z,11.80
2017-04-19T10:18:46.492Z,11.60
2017-04-19T10:19:44.714Z,12.30
2017-04-19T10:20:42.978Z,12.90
2017-04-19T10:21:42.197Z,12.80
2017-04-19T10:22:39.698Z,12.80
2017-04-19T10:23:37.933Z,14.60
2017-04-19T10:24:36.156Z,15.60
2017-04-19T10:25:35.141Z,16.00
2017-04-19T10:26:32.634Z,15.90
2017-04-19T10:27:30.932Z,15.60
2017-04-19T10:28:29.164Z,14.70
2017-04-19T10:29:27.395Z,12.80
2017-04-19T10:30:26.637Z,12.30
2017-04-19T10:31:24.871Z,11.60
2017-04-19T10:32:23.139Z,11.50
2017-04-19T10:33:21.407Z,11.50
2017-04-19T10:34:19.625Z,11.40
2017-04-19T10:35:17.960Z,11.30
2017-04-19T10:36:16.927Z,11.30
2017-04-19T10:37:15.153Z,11.50
2017-04-19T10:38:13.435Z,11.80
2017-04-19T10:39:11.191Z,11.80
2017-04-19T10:40:10.168Z,12.90
2017-04-19T10:41:08.406Z,13.40
2017-04-19T10:42:05.886Z,13.40
2017-04-19T10:43:04.855Z,14.20
2017-04-19T10:44:03.104Z,15.10
2017-04-19T10:45:01.568Z,15.80
2017-04-19T10:45:59.891Z,14.90
2017-04-19T10:46:58.407Z,13.40
2017-04-19T10:47:56.860Z,12.80
2017-04-19T10:48:55.124Z,12.50
2017-04-19T10:49:53.372Z,12.40
2017-04-19T10:50:51.614Z,12.40
2017-04-19T10:51:50.119Z,12.30
2017-04-19T10:52:48.375Z,12.20
2017-04-19T10:53:46.618Z,12.10
2017-04-19T10:54:44.847Z,12.10
2017-04-19T10:55:43.097Z,12.00
2017-04-19T10:56:41.545Z,12.00
2017-04-19T10:57:39.788Z,11.90
2017-04-19T10:58:37.259Z,11.90
2017-04-19T10:59:35.498Z,10.50
2017-04-19T11:00:34.544Z,9.60
2017-04-19T11:01:32.824Z,9.20
2017-04-19T11:02:31.075Z,9.00
2017-04-19T11:03:29.318Z,9.20
2017-04-19T11:04:27.545Z,9.60
2017-04-19T11:05:24.999Z,9.60
2017-04-19T11:06:23.231Z,10.20
2017-04-19T11:07:21.508Z,10.50
2017-04-19T11:08:18.975Z,10.50
2017-04-19T11:09:17.968Z,10.80
2017-04-19T11:10:16.206Z,10.80
2017-04-19T11:11:14.460Z,10.70
2017-04-19T11:12:12.693Z,10.70
2017-04-19T11:13:11.024Z,10.60
2017-04-19T11:14:09.252Z,10.60
2017-04-19T11:15:07.479Z,10.60
2017-04-19T11:16:05.724Z,10.60
2017-04-19T11:17:04.710Z,10.60
2017-04-19T11:18:02.429Z,10.60
2017-04-19T11:19:00.938Z,10.60
2017-04-19T11:19:59.172Z,10.20
2017-04-19T11:20:56.648Z,10.20
2017-04-19T11:21:54.911Z,10.20
2017-04-19T11:22:52.424Z,10.20
2017-04-19T11:23:50.652Z,9.90
2017-04-19T11:24:48.915Z,9.50
2017-04-19T11:25:47.343Z,9.30
2017-04-19T11:26:44.827Z,9.30
2017-04-19T11:27:43.076Z,9.50
2017-04-19T11:28:40.588Z,9.50
2017-04-19T11:29:38.808Z,9.80
2017-04-19T11:30:37.084Z,10.00
2017-04-19T11:31:35.325Z,9.80
2017-04-19T11:32:34.301Z,9.70
2017-04-19T11:33:32.747Z,9.90
2017-04-19T11:34:30.971Z,9.90
2017-04-19T11:35:29.194Z,9.80
2017-04-19T11:36:27.436Z,9.40
2017-04-19T11:37:25.883Z,9.60
2017-04-19T11:38:24.119Z,9.90
2017-04-19T11:39:22.348Z,10.10
2017-04-19T11:40:20.566Z,10.40
2017-04-19T11:41:18.784Z,10.50
2017-04-19T11:42:16.266Z,10.50
2017-04-19T11:43:14.780Z,10.70
2017-04-19T11:44:13.007Z,10.80
2017-04-19T11:45:11.455Z,11.00
2017-04-19T11:46:10.415Z,10.80
2017-04-19T11:47:07.894Z,10.80
2017-04-19T11:48:05.444Z,10.40
2017-04-19T11:49:04.400Z,10.30
2017-04-19T11:50:02.656Z,10.60
2017-04-19T11:51:00.924Z,10.60
2017-04-19T11:51:59.459Z,10.50
2017-04-19T11:52:57.846Z,10.10
2017-04-19T11:53:56.086Z,10.50
2017-04-19T11:54:54.306Z,11.00
2017-04-19T11:55:52.517Z,11.40
2017-04-19T11:56:50.723Z,11.90
2017-04-19T11:57:48.938Z,12.30
2017-04-19T11:58:47.163Z,12.40
2017-04-19T11:59:45.438Z,12.60
2017-04-19T12:00:42.888Z,12.60
2017-04-19T12:01:41.093Z,11.80
2017-04-19T12:02:39.340Z,11.60
2017-04-19T12:03:37.574Z,11.30
2017-04-19T12:04:35.771Z,11.30
2017-04-19T12:05:34.348Z,11.20
2017-04-19T12:06:32.550Z,11.30
2017-04-19T12:07:30.763Z,11.30
2017-04-19T12:08:28.980Z,11.20
2017-04-19T12:09:27.211Z,11.00
2017-04-19T12:10:25.432Z,10.70
2017-04-19T12:11:23.678Z,10.40
2017-04-19T12:12:22.636Z,10.20
2017-04-19T12:13:20.911Z,10.20
2017-04-19T12:14:19.134Z,9.70
2017-04-19T12:15:18.347Z,9.20
2017-04-19T12:16:16.580Z,9.20
2017-04-19T12:17:15.088Z,9.00
2017-04-19T12:18:13.320Z,9.20
2017-04-19T12:19:12.161Z,9.20
2017-04-19T12:20:10.367Z,8.90
2017-04-19T12:21:08.816Z,8.70
2017-04-19T12:22:07.019Z,8.70
2017-04-19T12:23:05.999Z,8.70
2017-04-19T12:24:03.441Z,8.70
2017-04-19T12:25:01.762Z,9.30
2017-04-19T12:25:59.963Z,9.80
2017-04-19T12:26:58.179Z,9.60
2017-04-19T12:27:56.625Z,9.40
2017-04-19T12:28:55.655Z,9.40
2017-04-19T12:29:53.859Z,9.50
2017-04-19T12:30:51.328Z,9.50
2017-04-19T12:31:49.530Z,10.40
2017-04-19T12:32:47.739Z,10.80
2017-04-19T12:33:45.963Z,11.30
2017-04-19T12:34:44.304Z,11.60
2017-04-19T12:35:42.520Z,11.70
2017-04-19T12:36:40.727Z,12.00
2017-04-19T12:37:38.940Z,12.00
2017-04-19T12:38:37.403Z,12.20
2017-04-19T12:39:35.676Z,12.20
2017-04-19T12:40:33.919Z,12.20
2017-04-19T12:41:31.396Z,12.20
2017-04-19T12:42:29.630Z,11.50